Time;durP1;ratioP1;P1;durP2;ratioP2;P2;SDS_P1;SDS_P2;PMS_P1;PMS_P2;Temp;Humidity;BMP_temperature;BMP_pressure;BME280_temperature;BME280_humidity;BME280_pressure;Samples;Min_cycle;Max_cycle;Signal;HPM_P1;HPM_P2
2023/06/11 00:01:14;;;;;;;5.87;5.47;;;28.10;43.10;;;;;;5004569;28;20496;-46
2023/06/11 00:03:40;;;;;;;5.33;4.93;;;28.10;43.00;;;;;;5007216;28;20229;-51
2023/06/11 00:06:07;;;;;;;6.63;6.03;;;28.10;43.10;;;;;;5002357;28;20441;-47
2023/06/11 00:08:32;;;;;;;6.37;5.90;;;28.10;43.00;;;;;;5001283;28;20448;-46
2023/06/11 00:10:58;;;;;;;6.87;6.27;;;28.20;43.00;;;;;;5006593;28;20433;-48
2023/06/11 00:13:25;;;;;;;6.90;6.30;;;28.20;43.10;;;;;;5010183;28;20201;-49
2023/06/11 00:15:51;;;;;;;6.30;5.80;;;28.20;43.20;;;;;;5000703;28;20359;-47
2023/06/11 00:18:17;;;;;;;6.00;5.50;;;28.10;43.20;;;;;;5000676;28;21227;-47
2023/06/11 00:20:43;;;;;;;6.57;6.00;;;28.10;43.40;;;;;;5003309;28;20200;-48
2023/06/11 00:23:09;;;;;;;5.67;5.17;;;28.00;43.60;;;;;;5006263;28;20225;-47
2023/06/11 00:25:35;;;;;;;6.17;5.57;;;28.00;43.60;;;;;;5011179;28;20449;-49
2023/06/11 00:28:01;;;;;;;6.23;5.70;;;27.90;43.70;;;;;;5011136;28;20436;-47
2023/06/11 00:30:26;;;;;;;6.50;5.90;;;28.00;43.80;;;;;;5005252;28;20202;-48
2023/06/11 00:32:52;;;;;;;9.10;5.80;;;27.90;43.80;;;;;;5006495;28;20194;-46
2023/06/11 00:35:17;;;;;;;5.90;5.40;;;27.90;44.10;;;;;;5004344;28;20197;-46
2023/06/11 00:37:43;;;;;;;6.73;6.10;;;27.90;44.40;;;;;;5011053;28;20268;-46
2023/06/11 00:40:09;;;;;;;8.00;7.40;;;27.80;44.20;;;;;;5011538;28;20198;-46
2023/06/11 00:42:35;;;;;;;7.07;6.57;;;27.80;44.30;;;;;;5012175;28;20233;-46
2023/06/11 00:45:03;;;;;;;8.73;6.57;;;27.80;44.40;;;;;;5009802;28;20440;-49
2023/06/11 00:47:29;;;;;;;6.33;5.77;;;27.80;44.50;;;;;;5010364;28;20190;-52
2023/06/11 00:49:56;;;;;;;8.93;6.77;;;27.80;44.60;;;;;;5005150;28;20963;-49
2023/06/11 00:52:22;;;;;;;6.93;6.40;;;27.70;44.50;;;;;;5002796;28;20441;-47
2023/06/11 00:54:47;;;;;;;6.90;6.40;;;27.70;44.60;;;;;;5003060;28;20449;-50
2023/06/11 00:57:17;;;;;;;4.93;4.63;;;27.60;44.80;;;;;;5001441;28;20448;-48
2023/06/11 00:59:48;;;;;;;7.37;6.70;;;27.50;44.90;;;;;;5006133;28;20256;-49
2023/06/11 01:02:21;;;;;;;6.40;6.00;;;27.50;44.80;;;;;;5001339;28;20575;-52
2023/06/11 01:04:51;;;;;;;6.80;6.30;;;27.60;44.90;;;;;;5005140;28;20568;-51
2023/06/11 01:07:18;;;;;;;6.17;5.67;;;27.50;44.90;;;;;;5004329;28;20440;-53
2023/06/11 01:09:45;;;;;;;6.50;6.00;;;27.40;45.10;;;;;;5005530;28;20487;-46
2023/06/11 01:12:12;;;;;;;7.17;6.67;;;27.40;45.20;;;;;;5009942;28;20450;-48
2023/06/11 01:14:39;;;;;;;6.80;6.30;;;27.40;45.20;;;;;;5003163;28;20443;-48
2023/06/11 01:17:15;;;;;;;7.47;6.87;;;27.40;45.40;;;;;;5007351;28;20560;-46
2023/06/11 01:20:12;;;;;;;7.03;6.50;;;27.40;45.30;;;;;;4998842;28;21912;-46
2023/06/11 01:23:06;;;;;;;7.40;6.80;;;27.40;45.20;;;;;;5003173;28;20496;-48
2023/06/11 01:26:05;;;;;;;7.20;6.70;;;27.30;45.40;;;;;;5009031;28;20455;-48
2023/06/11 01:28:33;;;;;;;7.10;6.60;;;27.20;45.50;;;;;;5008523;28;20491;-47
2023/06/11 01:31:03;;;;;;;8.60;7.17;;;27.30;45.50;;;;;;5011674;28;20912;-49
2023/06/11 01:33:34;;;;;;;7.40;6.80;;;27.20;45.70;;;;;;5010919;28;20444;-51
2023/06/11 01:36:00;;;;;;;7.30;6.70;;;27.20;45.70;;;;;;5007417;28;20507;-46
2023/06/11 01:38:34;;;;;;;7.43;6.83;;;27.20;45.80;;;;;;5009112;28;20445;-50
2023/06/11 01:41:02;;;;;;;6.97;6.47;;;27.00;46.00;;;;;;5009376;28;20213;-48
2023/06/11 01:43:28;;;;;;;7.13;6.53;;;27.10;46.00;;;;;;5009561;28;20576;-50
2023/06/11 01:45:55;;;;;;;6.83;6.20;;;27.20;45.80;;;;;;5005058;28;20552;-50
2023/06/11 01:48:21;;;;;;;6.97;6.37;;;27.10;45.90;;;;;;5003204;28;20445;-47
2023/06/11 01:50:47;;;;;;;6.37;5.97;;;27.00;46.30;;;;;;4995754;28;21145;-46
2023/06/11 01:53:12;;;;;;;9.00;6.53;;;27.00;46.20;;;;;;5001114;28;20437;-46
2023/06/11 01:55:39;;;;;;;8.00;7.20;;;26.90;46.40;;;;;;5006227;28;20582;-50
2023/06/11 01:58:05;;;;;;;7.70;7.00;;;26.90;46.40;;;;;;5001558;28;20202;-46
2023/06/11 02:00:30;;;;;;;8.03;6.57;;;26.90;46.50;;;;;;5001605;28;20444;-46
2023/06/11 02:02:56;;;;;;;9.00;8.10;;;27.00;46.30;;;;;;5009600;28;20229;-47
2023/06/11 02:05:22;;;;;;;7.40;6.80;;;27.00;46.20;;;;;;4998608;28;20198;-49
2023/06/11 02:07:47;;;;;;;6.63;6.10;;;26.90;46.20;;;;;;5002292;28;20198;-50
2023/06/11 02:10:13;;;;;;;7.03;6.53;;;27.00;46.10;;;;;;5006269;28;20795;-52
2023/06/11 02:12:39;;;;;;;8.67;7.83;;;27.00;46.10;;;;;;5010899;28;20186;-52
2023/06/11 02:15:05;;;;;;;6.93;6.23;;;26.90;46.30;;;;;;5010613;28;20190;-52
2023/06/11 02:17:31;;;;;;;7.10;6.50;;;26.90;46.40;;;;;;4998942;28;20197;-52
2023/06/11 02:19:57;;;;;;;7.27;6.67;;;26.90;46.40;;;;;;5008983;28;20448;-52
2023/06/11 02:22:22;;;;;;;7.17;6.57;;;26.80;46.50;;;;;;5002597;28;20235;-49
2023/06/11 02:24:48;;;;;;;13.07;6.03;;;26.80;46.50;;;;;;5005868;28;20190;-52
2023/06/11 02:27:13;;;;;;;7.53;6.83;;;26.80;46.50;;;;;;5004168;28;20649;-51
2023/06/11 02:29:39;;;;;;;7.03;6.53;;;26.80;46.50;;;;;;5001145;28;20199;-52
2023/06/11 02:32:06;;;;;;;7.20;6.50;;;26.80;46.50;;;;;;5004926;28;20197;-51
2023/06/11 02:34:32;;;;;;;8.27;7.57;;;26.80;46.60;;;;;;5005553;28;20677;-49
2023/06/11 02:36:57;;;;;;;6.67;6.17;;;26.80;46.70;;;;;;5008963;28;20436;-51
2023/06/11 02:39:23;;;;;;;7.90;7.20;;;26.70;46.70;;;;;;5006997;28;20193;-51
2023/06/11 02:41:48;;;;;;;6.90;6.40;;;26.70;46.80;;;;;;5007415;28;20303;-51
2023/06/11 02:44:14;;;;;;;7.00;6.47;;;26.70;46.80;;;;;;5009375;28;20194;-50
2023/06/11 02:46:40;;;;;;;6.97;6.47;;;26.60;46.70;;;;;;5009210;28;20205;-49
2023/06/11 02:49:05;;;;;;;6.60;6.00;;;26.60;46.70;;;;;;5007297;28;20190;-49
2023/06/11 02:51:31;;;;;;;6.20;5.80;;;26.60;46.80;;;;;;5004536;28;21890;-52
2023/06/11 02:53:56;;;;;;;7.00;5.53;;;26.60;46.70;;;;;;4996744;28;20649;-53
2023/06/11 02:56:22;;;;;;;6.00;5.60;;;26.60;46.70;;;;;;4998936;28;20189;-48
2023/06/11 02:58:49;;;;;;;5.80;5.40;;;26.60;46.70;;;;;;5005229;28;20196;-46
2023/06/11 03:01:14;;;;;;;7.03;6.33;;;26.60;46.90;;;;;;5001352;28;20809;-51
2023/06/11 03:03:40;;;;;;;7.60;7.00;;;26.60;46.60;;;;;;5006832;28;20496;-50
2023/06/11 03:06:05;;;;;;;6.37;5.87;;;26.70;46.50;;;;;;5006641;28;20206;-52
2023/06/11 03:08:31;;;;;;;6.73;6.23;;;26.70;46.60;;;;;;5003367;28;20206;-50
2023/06/11 03:10:57;;;;;;;6.27;5.77;;;26.60;46.80;;;;;;5003586;28;20190;-52
2023/06/11 03:13:23;;;;;;;6.17;5.77;;;26.50;46.90;;;;;;5003472;28;20255;-46
2023/06/11 03:15:48;;;;;;;6.97;6.37;;;26.50;46.90;;;;;;5004236;28;21024;-50
2023/06/11 03:18:15;;;;;;;6.70;6.20;;;26.30;47.30;;;;;;5002245;28;20280;-50
2023/06/11 03:20:40;;;;;;;7.90;7.30;;;26.10;47.50;;;;;;5010678;28;20225;-48
2023/06/11 03:23:06;;;;;;;7.00;6.33;;;26.40;46.90;;;;;;5001310;28;20535;-51
2023/06/11 03:25:32;;;;;;;8.40;7.70;;;26.50;46.50;;;;;;4998435;28;20205;-47
2023/06/11 03:27:57;;;;;;;7.60;7.00;;;26.40;46.50;;;;;;4998754;28;20202;-51
2023/06/11 03:30:23;;;;;;;7.50;6.80;;;26.30;46.80;;;;;;5008441;28;20193;-46
2023/06/11 03:32:48;;;;;;;7.10;6.50;;;26.20;47.00;;;;;;5003238;28;20209;-47
2023/06/11 03:35:14;;;;;;;7.47;6.87;;;26.10;47.40;;;;;;5008204;28;20548;-51
2023/06/11 03:37:40;;;;;;;7.30;6.80;;;25.90;47.60;;;;;;5007099;28;20553;-47
2023/06/11 03:40:06;;;;;;;7.87;7.23;;;25.90;48.30;;;;;;5008552;28;20453;-50
2023/06/11 03:42:33;;;;;;;7.57;6.80;;;25.80;48.00;;;;;;5001354;28;20640;-49
2023/06/11 03:44:58;;;;;;;6.80;6.20;;;25.70;47.90;;;;;;4995645;28;20448;-49
2023/06/11 03:47:24;;;;;;;6.30;5.80;;;25.70;48.20;;;;;;4999046;28;20664;-47
2023/06/11 03:49:50;;;;;;;6.93;6.43;;;25.70;48.20;;;;;;5001016;28;20600;-46
2023/06/11 03:52:16;;;;;;;7.17;6.57;;;25.70;48.30;;;;;;5003206;28;20650;-46
2023/06/11 03:54:41;;;;;;;6.13;5.70;;;25.70;48.30;;;;;;4999739;28;20449;-52
2023/06/11 03:57:07;;;;;;;7.30;6.70;;;25.70;48.30;;;;;;4999720;28;20807;-51
2023/06/11 03:59:33;;;;;;;8.53;6.30;;;25.60;48.40;;;;;;5008155;28;20202;-46
2023/06/11 04:02:00;;;;;;;6.00;5.60;;;25.50;50.50;;;;;;5009223;28;20241;-46
2023/06/11 04:04:26;;;;;;;5.90;5.30;;;25.20;50.00;;;;;;5007784;28;20244;-49
2023/06/11 04:06:51;;;;;;;6.13;5.73;;;25.10;50.10;;;;;;5002833;28;20452;-47
2023/06/11 04:09:17;;;;;;;6.00;5.60;;;25.20;49.90;;;;;;5004746;28;20197;-46
2023/06/11 04:11:42;;;;;;;5.63;5.23;;;25.40;49.30;;;;;;5001985;28;20665;-49
2023/06/11 04:14:08;;;;;;;6.40;5.90;;;25.60;49.00;;;;;;4998951;28;20198;-50
2023/06/11 04:16:34;;;;;;;5.90;5.47;;;25.60;48.60;;;;;;5001289;28;20194;-50
2023/06/11 04:18:59;;;;;;;6.07;5.57;;;25.70;48.40;;;;;;5003708;28;20212;-48
2023/06/11 04:21:25;;;;;;;6.50;5.90;;;25.80;48.20;;;;;;5010763;28;20225;-48
2023/06/11 04:23:51;;;;;;;6.50;6.00;;;26.00;47.90;;;;;;4997079;28;20221;-46
2023/06/11 04:26:19;;;;;;;6.13;5.63;;;26.00;47.90;;;;;;5000355;28;20225;-47
2023/06/11 04:28:45;;;;;;;6.17;5.77;;;26.10;47.80;;;;;;5010736;28;20543;-49
2023/06/11 04:31:14;;;;;;;6.10;5.50;;;26.10;47.60;;;;;;5012636;28;20443;-52
2023/06/11 04:33:40;;;;;;;5.60;5.20;;;26.10;47.70;;;;;;5012366;28;20940;-50
2023/06/11 04:36:07;;;;;;;6.80;6.07;;;26.20;47.50;;;;;;5012498;28;20480;-52
2023/06/11 04:38:37;;;;;;;6.60;5.60;;;26.20;47.40;;;;;;5007170;28;20429;-48
2023/06/11 04:41:07;;;;;;;6.10;5.70;;;26.30;47.20;;;;;;5011565;28;20441;-52
2023/06/11 04:43:33;;;;;;;6.00;5.50;;;26.40;47.20;;;;;;5013797;28;20516;-52
2023/06/11 04:46:00;;;;;;;5.80;5.30;;;26.40;47.00;;;;;;5011930;28;20495;-46
2023/06/11 04:48:28;;;;;;;6.40;5.87;;;26.40;47.00;;;;;;5012020;28;20451;-52
2023/06/11 04:50:54;;;;;;;6.10;5.60;;;26.50;47.10;;;;;;5006141;28;20442;-50
2023/06/11 04:53:27;;;;;;;5.50;5.10;;;26.50;46.90;;;;;;5009398;28;20447;-51
2023/06/11 04:55:54;;;;;;;7.03;6.43;;;26.60;46.80;;;;;;5009466;28;20212;-51
2023/06/11 04:58:22;;;;;;;6.47;5.80;;;26.60;46.90;;;;;;5011192;28;20494;-46
2023/06/11 05:00:48;;;;;;;6.10;5.67;;;26.50;47.00;;;;;;5010276;28;20598;-48
2023/06/11 05:03:17;;;;;;;6.30;5.80;;;26.50;47.20;;;;;;5006717;28;20536;-47
2023/06/11 05:05:51;;;;;;;6.73;6.23;;;26.20;47.80;;;;;;5001596;28;20212;-46
2023/06/11 05:08:21;;;;;;;6.80;6.20;;;26.10;48.30;;;;;;5006846;28;20445;-47
2023/06/11 05:10:47;;;;;;;6.30;5.80;;;25.90;48.60;;;;;;4999418;28;20464;-48
2023/06/11 05:13:13;;;;;;;6.10;5.70;;;25.70;49.10;;;;;;4993708;28;20448;-52
2023/06/11 05:15:39;;;;;;;5.83;5.43;;;25.50;49.40;;;;;;5003053;28;20328;-47
2023/06/11 05:18:05;;;;;;;6.97;6.40;;;25.40;50.00;;;;;;5005598;28;20190;-45
2023/06/11 05:20:30;;;;;;;7.50;6.70;;;25.10;50.70;;;;;;5012805;28;20784;-48
2023/06/11 05:23:00;;;;;;;6.53;5.97;;;24.50;51.80;;;;;;5008115;28;20490;-51
2023/06/11 05:25:28;;;;;;;7.17;6.50;;;24.40;52.50;;;;;;5008065;28;20198;-48
2023/06/11 05:27:57;;;;;;;7.13;6.53;;;24.30;52.50;;;;;;5008758;28;20460;-52
2023/06/11 05:30:25;;;;;;;6.57;5.97;;;24.10;53.10;;;;;;5016642;28;20596;-49
2023/06/11 05:32:51;;;;;;;7.27;5.80;;;24.40;52.80;;;;;;5009147;28;20515;-46
2023/06/11 05:35:17;;;;;;;6.50;6.00;;;24.60;52.30;;;;;;5010252;28;21149;-47
2023/06/11 05:37:43;;;;;;;7.17;6.57;;;24.80;51.80;;;;;;5004876;28;20441;-47
2023/06/11 05:40:11;;;;;;;7.10;6.33;;;24.90;51.70;;;;;;5012281;28;20567;-48
2023/06/11 05:42:36;;;;;;;6.30;5.80;;;25.10;51.50;;;;;;5011190;28;20484;-47
2023/06/11 05:45:03;;;;;;;6.20;5.63;;;25.30;51.00;;;;;;5009889;28;20444;-47
2023/06/11 05:47:28;;;;;;;6.35;5.85;;;25.20;51.10;;;;;;5010580;28;20427;-46
2023/06/11 05:49:54;;;;;;;6.40;5.90;;;25.40;51.40;;;;;;5014591;28;20209;-48
2023/06/11 05:52:19;;;;;;;6.37;5.87;;;25.20;50.80;;;;;;5009043;28;20190;-48
2023/06/11 05:54:45;;;;;;;8.03;5.97;;;25.00;51.70;;;;;;5006452;28;20198;-52
2023/06/11 05:57:21;;;;;;;7.10;6.50;;;25.00;52.00;;;;;;5015638;28;20198;-50
2023/06/11 05:59:47;;;;;;;6.77;6.17;;;25.20;51.70;;;;;;5005120;28;20202;-50
2023/06/11 06:02:13;;;;;;;6.30;5.80;;;25.20;51.50;;;;;;4998142;28;20747;-51
2023/06/11 06:04:38;;;;;;;6.70;6.20;;;25.40;51.30;;;;;;5002479;28;20194;-48
2023/06/11 06:07:04;;;;;;;7.30;6.60;;;25.30;51.50;;;;;;5000427;28;20248;-48
2023/06/11 06:09:30;;;;;;;6.80;6.30;;;25.20;51.90;;;;;;5006714;28;20548;-47
2023/06/11 06:11:56;;;;;;;6.83;6.30;;;24.60;52.80;;;;;;5010109;28;20290;-47
2023/06/11 06:14:21;;;;;;;6.93;6.20;;;24.60;53.00;;;;;;5008611;28;20608;-48
2023/06/11 06:16:47;;;;;;;6.77;6.30;;;24.80;52.90;;;;;;5008725;28;20209;-47
2023/06/11 06:19:13;;;;;;;6.03;5.63;;;25.00;52.60;;;;;;5008111;28;20190;-49
2023/06/11 06:21:38;;;;;;;6.83;6.23;;;25.20;52.10;;;;;;5007135;28;20197;-47
2023/06/11 06:24:04;;;;;;;6.77;6.30;;;25.40;51.60;;;;;;5009481;28;20689;-49
2023/06/11 06:26:30;;;;;;;7.70;7.20;;;25.20;51.80;;;;;;5004376;28;20225;-46
2023/06/11 06:28:56;;;;;;;7.30;6.70;;;25.00;52.50;;;;;;5008362;28;20536;-49
2023/06/11 06:31:22;;;;;;;7.10;6.50;;;24.90;52.10;;;;;;5000346;28;20548;-47
2023/06/11 06:33:50;;;;;;;6.50;6.00;;;25.10;52.00;;;;;;5008864;28;20531;-49
2023/06/11 06:36:16;;;;;;;7.20;6.53;;;25.40;51.70;;;;;;5005043;28;20441;-47
2023/06/11 06:38:42;;;;;;;6.80;6.30;;;24.90;51.90;;;;;;5007608;28;20437;-46
2023/06/11 06:41:07;;;;;;;6.80;6.20;;;24.70;52.70;;;;;;5013792;28;20224;-46
2023/06/11 06:43:34;;;;;;;7.47;6.87;;;24.80;52.70;;;;;;5011984;28;20309;-47
2023/06/11 06:46:00;;;;;;;6.97;6.50;;;24.80;52.20;;;;;;5011667;28;20240;-47
2023/06/11 06:48:26;;;;;;;6.90;6.30;;;25.10;51.80;;;;;;5010807;28;20432;-46
2023/06/11 06:50:52;;;;;;;6.90;6.07;;;25.40;51.00;;;;;;5008831;28;20452;-46
2023/06/11 06:53:17;;;;;;;6.37;5.90;;;25.40;50.60;;;;;;5012119;28;20194;-46
2023/06/11 06:55:44;;;;;;;8.40;5.97;;;25.70;50.40;;;;;;5008853;28;20264;-48
2023/06/11 06:58:10;;;;;;;6.23;5.73;;;25.80;49.90;;;;;;5012003;28;20201;-48
2023/06/11 07:00:36;;;;;;;6.63;6.03;;;25.80;49.90;;;;;;5010051;28;20448;-47
2023/06/11 07:03:01;;;;;;;8.00;6.37;;;25.70;49.50;;;;;;4992455;28;20325;-48
2023/06/11 07:05:27;;;;;;;7.10;6.50;;;25.70;50.10;;;;;;5010967;28;20519;-49
2023/06/11 07:07:53;;;;;;;6.53;6.03;;;26.10;49.20;;;;;;5012137;28;20538;-48
2023/06/11 07:10:19;;;;;;;6.33;5.80;;;25.90;48.60;;;;;;5008833;28;20208;-49
2023/06/11 07:12:44;;;;;;;6.30;5.80;;;25.90;49.10;;;;;;4996706;28;20252;-47
2023/06/11 07:15:10;;;;;;;5.80;5.30;;;26.10;48.70;;;;;;5011573;28;20460;-46
2023/06/11 07:17:37;;;;;;;6.57;6.07;;;26.30;47.90;;;;;;5011838;28;20225;-48
2023/06/11 07:20:04;;;;;;;6.17;5.67;;;26.50;47.90;;;;;;5010892;28;20603;-46
2023/06/11 07:22:30;;;;;;;6.07;5.67;;;26.40;47.60;;;;;;5004132;28;20492;-53
2023/06/11 07:24:56;;;;;;;7.67;6.90;;;26.20;47.80;;;;;;4996893;28;20449;-48
2023/06/11 07:27:22;;;;;;;7.03;6.53;;;26.10;48.00;;;;;;4994871;28;20456;-51
2023/06/11 07:29:48;;;;;;;6.77;6.17;;;26.70;47.40;;;;;;5011806;28;20198;-47
2023/06/11 07:32:13;;;;;;;6.80;6.30;;;26.80;46.40;;;;;;5010348;28;20194;-49
2023/06/11 07:34:40;;;;;;;6.73;6.23;;;27.10;46.10;;;;;;5009193;28;20225;-49
2023/06/11 07:37:05;;;;;;;6.30;5.90;;;27.20;45.70;;;;;;5011606;28;20244;-48
2023/06/11 07:39:31;;;;;;;6.57;6.07;;;27.10;45.80;;;;;;5011661;28;20519;-48
2023/06/11 07:41:57;;;;;;;6.40;5.90;;;27.30;45.80;;;;;;5011576;28;20236;-50
2023/06/11 07:44:22;;;;;;;7.07;6.37;;;27.50;45.40;;;;;;5010338;28;20198;-49
2023/06/11 07:46:48;;;;;;;6.73;6.33;;;27.80;44.80;;;;;;5002273;28;20190;-47
2023/06/11 07:49:14;;;;;;;7.00;6.50;;;28.10;44.30;;;;;;4999998;28;20324;-48
2023/06/11 07:51:42;;;;;;;6.00;5.70;;;28.20;43.60;;;;;;5008072;28;20194;-47
2023/06/11 07:54:07;;;;;;;6.03;5.60;;;28.20;43.70;;;;;;5011003;28;20295;-49
2023/06/11 07:56:33;;;;;;;6.73;6.20;;;28.10;43.50;;;;;;5011625;28;20472;-47
2023/06/11 07:58:59;;;;;;;5.63;5.23;;;28.20;43.50;;;;;;5009885;28;20602;-49
2023/06/11 08:01:24;;;;;;;6.20;5.70;;;28.30;43.40;;;;;;5012416;28;20237;-47
2023/06/11 08:03:50;;;;;;;7.60;5.80;;;28.30;42.80;;;;;;5013281;28;20221;-47
2023/06/11 08:06:16;;;;;;;6.40;5.80;;;28.40;42.70;;;;;;5010688;28;20568;-50
2023/06/11 08:08:41;;;;;;;6.50;6.00;;;28.40;42.30;;;;;;5013509;28;20269;-48
2023/06/11 08:11:07;;;;;;;6.40;5.90;;;28.40;42.30;;;;;;5006369;28;20198;-49
2023/06/11 08:13:34;;;;;;;6.10;5.60;;;27.90;42.60;;;;;;5008677;28;20272;-52
2023/06/11 08:16:01;;;;;;;6.10;5.70;;;28.30;42.80;;;;;;5009124;28;20210;-48
2023/06/11 08:18:26;;;;;;;6.40;5.90;;;28.80;40.70;;;;;;5011161;28;20440;-53
2023/06/11 08:20:53;;;;;;;5.93;5.47;;;28.40;41.00;;;;;;5014253;28;20447;-53
2023/06/11 08:23:19;;;;;;;5.00;4.60;;;28.30;41.10;;;;;;5013717;28;20238;-52
2023/06/11 08:25:45;;;;;;;5.77;5.30;;;28.60;40.40;;;;;;5011465;28;20452;-50
2023/06/11 08:28:11;;;;;;;5.70;5.30;;;28.80;39.30;;;;;;5010832;28;20803;-53
2023/06/11 08:30:36;;;;;;;5.27;4.77;;;28.60;39.50;;;;;;5008858;28;20194;-48
2023/06/11 08:33:02;;;;;;;5.50;5.10;;;28.80;38.80;;;;;;5003583;28;20187;-50
2023/06/11 08:35:27;;;;;;;6.83;4.93;;;28.80;38.20;;;;;;5012510;28;20205;-52
2023/06/11 08:37:53;;;;;;;5.10;4.70;;;28.80;37.70;;;;;;5009749;28;20193;-54
2023/06/11 08:40:20;;;;;;;5.10;4.80;;;29.10;37.40;;;;;;5008781;28;20194;-50
2023/06/11 08:42:47;;;;;;;5.10;4.80;;;29.10;37.10;;;;;;5007467;28;20241;-52
2023/06/11 08:45:12;;;;;;;5.30;4.90;;;29.50;37.20;;;;;;5007098;28;20471;-50
2023/06/11 08:47:42;;;;;;;6.40;5.70;;;29.70;36.80;;;;;;5004918;28;20231;-54
2023/06/11 08:50:09;;;;;;;5.47;5.07;;;29.80;36.70;;;;;;5011056;28;20186;-53
2023/06/11 08:52:37;;;;;;;5.47;4.97;;;29.90;36.30;;;;;;5006504;28;20448;-53
2023/06/11 08:55:02;;;;;;;6.40;5.87;;;30.20;35.30;;;;;;5006645;28;20916;-54
2023/06/11 08:57:28;;;;;;;5.10;4.60;;;30.50;34.00;;;;;;5014557;28;20425;-53
2023/06/11 08:59:54;;;;;;;5.73;5.23;;;30.60;33.40;;;;;;5011661;28;20292;-52
2023/06/11 09:02:20;;;;;;;4.97;4.63;;;30.90;33.20;;;;;;5011153;28;20332;-56
2023/06/11 09:04:46;;;;;;;5.40;4.97;;;31.30;33.20;;;;;;5012086;28;20218;-52
2023/06/11 09:07:23;;;;;;;5.57;5.07;;;31.30;32.80;;;;;;5012412;28;21275;-52
2023/06/11 09:10:02;;;;;;;5.27;4.80;;;31.30;31.90;;;;;;5009736;28;20198;-54
2023/06/11 09:12:27;;;;;;;5.83;5.33;;;31.20;32.20;;;;;;5009651;28;20433;-52
2023/06/11 09:14:53;;;;;;;6.73;5.63;;;30.90;33.00;;;;;;5012675;28;20954;-56
2023/06/11 09:17:19;;;;;;;6.37;5.87;;;31.20;31.40;;;;;;5014834;28;20225;-55
2023/06/11 09:19:45;;;;;;;5.47;4.97;;;31.50;30.30;;;;;;5010097;28;20194;-52
2023/06/11 09:22:10;;;;;;;5.93;5.53;;;31.70;29.70;;;;;;5010128;28;20225;-54
2023/06/11 09:24:36;;;;;;;5.77;4.90;;;31.70;30.50;;;;;;5012935;28;20432;-55
2023/06/11 09:27:02;;;;;;;6.00;5.50;;;31.90;30.40;;;;;;5010873;28;20225;-57
2023/06/11 09:29:28;;;;;;;6.50;5.57;;;32.20;29.80;;;;;;5013507;28;20616;-53
2023/06/11 09:32:03;;;;;;;5.70;5.30;;;32.40;29.40;;;;;;5023606;28;20236;-53
2023/06/11 09:34:29;;;;;;;6.20;5.70;;;32.40;28.40;;;;;;5009111;28;20459;-54
2023/06/11 09:36:55;;;;;;;6.13;5.63;;;32.40;28.90;;;;;;5010716;28;20449;-49
2023/06/11 09:39:22;;;;;;;5.77;5.37;;;32.60;28.20;;;;;;5007968;28;20859;-55
2023/06/11 09:41:51;;;;;;;5.47;5.10;;;32.70;27.60;;;;;;5007240;28;20205;-54
2023/06/11 09:44:19;;;;;;;5.80;5.30;;;32.70;27.00;;;;;;5010332;28;20452;-55
2023/06/11 09:46:48;;;;;;;6.90;6.20;;;32.60;27.30;;;;;;5010291;28;20477;-56
2023/06/11 09:49:15;;;;;;;5.60;5.20;;;32.70;27.80;;;;;;5011517;28;20472;-53
2023/06/11 09:51:44;;;;;;;5.80;5.27;;;32.70;27.60;;;;;;5009105;28;20441;-51
2023/06/11 09:54:12;;;;;;;5.83;5.40;;;33.00;27.60;;;;;;5007302;28;20434;-54
2023/06/11 09:56:38;;;;;;;8.33;5.03;;;33.10;27.50;;;;;;5002467;28;20495;-54
2023/06/11 09:59:04;;;;;;;5.43;5.03;;;33.10;26.70;;;;;;5004202;28;20444;-52
2023/06/11 10:01:31;;;;;;;5.53;5.03;;;32.80;27.10;;;;;;5008470;28;20265;-52
2023/06/11 10:03:58;;;;;;;6.10;5.60;;;32.90;27.10;;;;;;5011330;28;20580;-54
2023/06/11 10:06:37;;;;;;;5.13;4.73;;;33.00;27.20;;;;;;5012295;28;20461;-52
2023/06/11 10:09:06;;;;;;;5.70;5.20;;;33.30;26.90;;;;;;5007822;28;20455;-54
2023/06/11 10:11:40;;;;;;;7.53;4.97;;;33.60;26.60;;;;;;5011152;28;20468;-54
2023/06/11 10:14:12;;;;;;;5.30;4.90;;;33.70;26.00;;;;;;5011339;28;20457;-55
2023/06/11 10:16:38;;;;;;;6.37;5.80;;;33.50;25.80;;;;;;5011790;28;20448;-54
2023/06/11 10:19:10;;;;;;;6.30;5.30;;;33.40;26.30;;;;;;5006756;28;20924;-53
2023/06/11 10:21:38;;;;;;;6.20;5.60;;;33.40;26.80;;;;;;5010671;28;20288;-53
2023/06/11 10:24:04;;;;;;;5.87;5.33;;;33.70;26.90;;;;;;5010510;28;20504;-54
2023/06/11 10:26:37;;;;;;;5.87;5.30;;;33.80;26.80;;;;;;5009236;28;20974;-53
2023/06/11 10:29:10;;;;;;;6.47;5.87;;;34.00;26.70;;;;;;4997912;28;20528;-54
2023/06/11 10:31:39;;;;;;;5.90;5.50;;;33.80;26.60;;;;;;5008278;28;20445;-57
2023/06/11 10:34:05;;;;;;;6.60;5.97;;;33.80;26.70;;;;;;5009206;28;20452;-56
2023/06/11 10:36:36;;;;;;;5.60;5.20;;;33.80;26.90;;;;;;5008867;28;20799;-53
2023/06/11 10:39:08;;;;;;;5.97;5.57;;;33.90;27.40;;;;;;5002962;28;20196;-53
2023/06/11 10:41:37;;;;;;;6.60;6.00;;;33.80;26.80;;;;;;5010047;28;20518;-55
2023/06/11 10:44:03;;;;;;;6.03;5.43;;;33.80;27.10;;;;;;5003072;28;20488;-55
2023/06/11 10:46:29;;;;;;;6.67;6.03;;;34.20;27.00;;;;;;5010734;28;20987;-54
2023/06/11 10:48:55;;;;;;;6.33;5.70;;;34.50;27.00;;;;;;4998544;28;20289;-54
2023/06/11 10:51:21;;;;;;;5.47;5.07;;;34.70;26.50;;;;;;5008094;28;20277;-56
2023/06/11 10:53:54;;;;;;;5.60;5.13;;;34.90;25.90;;;;;;5011948;28;20206;-57
2023/06/11 10:56:24;;;;;;;7.53;5.53;;;34.90;26.10;;;;;;5010346;28;20440;-56
2023/06/11 10:58:50;;;;;;;6.20;5.60;;;34.30;26.50;;;;;;5003960;28;20840;-57
2023/06/11 11:01:20;;;;;;;5.90;5.50;;;34.20;27.00;;;;;;5005256;28;20976;-54
2023/06/11 11:03:46;;;;;;;6.27;5.87;;;34.50;26.90;;;;;;5007849;28;20492;-52
2023/06/11 11:06:20;;;;;;;6.33;5.83;;;34.60;26.60;;;;;;5011437;28;20437;-54
2023/06/11 11:08:46;;;;;;;6.17;5.60;;;33.70;26.50;;;;;;5009843;28;20799;-51
2023/06/11 11:11:11;;;;;;;5.70;5.30;;;33.50;27.10;;;;;;4998809;28;20447;-54
2023/06/11 11:13:38;;;;;;;5.40;4.93;;;33.90;26.90;;;;;;5011387;28;20197;-53
2023/06/11 11:16:04;;;;;;;5.50;5.10;;;34.10;26.30;;;;;;5011955;28;20217;-53
2023/06/11 11:18:29;;;;;;;7.70;5.63;;;34.60;26.10;;;;;;5009207;28;20916;-55
2023/06/11 11:20:55;;;;;;;6.33;5.73;;;34.90;25.00;;;;;;5009357;28;20240;-55
2023/06/11 11:23:24;;;;;;;6.40;5.80;;;34.60;25.30;;;;;;5010452;28;20240;-55
2023/06/11 11:25:51;;;;;;;5.73;5.33;;;34.80;25.10;;;;;;5011299;28;20630;-56
2023/06/11 11:28:17;;;;;;;6.90;5.87;;;35.10;25.30;;;;;;5010712;28;20964;-54
2023/06/11 11:30:42;;;;;;;6.03;5.63;;;35.00;25.30;;;;;;5004405;28;20456;-55
2023/06/11 11:33:10;;;;;;;6.50;5.70;;;34.80;25.60;;;;;;5001998;28;20194;-56
2023/06/11 11:35:49;;;;;;;6.80;5.30;;;35.20;25.30;;;;;;5003215;28;20603;-54
2023/06/11 11:38:15;;;;;;;6.37;5.87;;;35.30;24.60;;;;;;5012388;28;20459;-55
2023/06/11 11:40:40;;;;;;;5.83;5.43;;;35.30;24.30;;;;;;5013766;28;20448;-53
2023/06/11 11:43:12;;;;;;;6.37;5.97;;;35.40;24.50;;;;;;5009999;28;20229;-54
2023/06/11 11:45:38;;;;;;;5.60;5.10;;;35.30;25.00;;;;;;5002380;28;20202;-54
2023/06/11 11:48:07;;;;;;;6.33;5.93;;;35.40;24.60;;;;;;5007281;28;20448;-54
2023/06/11 11:50:33;;;;;;;6.70;6.30;;;35.60;24.70;;;;;;5011133;28;20197;-54
2023/06/11 11:53:09;;;;;;;6.50;5.90;;;35.70;25.40;;;;;;5012527;28;20444;-57
2023/06/11 11:55:38;;;;;;;7.03;5.73;;;35.40;24.40;;;;;;5013463;28;20447;-63
2023/06/11 11:58:08;;;;;;;5.97;5.60;;;35.50;24.70;;;;;;5006855;28;20429;-56
2023/06/11 12:00:37;;;;;;;6.40;5.90;;;35.50;24.80;;;;;;4992787;28;20491;-57
2023/06/11 12:03:10;;;;;;;6.00;5.60;;;35.00;24.90;;;;;;5012454;28;20483;-57
2023/06/11 12:05:39;;;;;;;5.93;5.53;;;34.90;25.10;;;;;;5006741;28;21270;-57
2023/06/11 12:08:07;;;;;;;6.47;5.97;;;35.10;25.10;;;;;;5010499;28;20476;-56
2023/06/11 12:10:33;;;;;;;6.10;5.60;;;35.40;25.40;;;;;;5007420;28;20449;-55
2023/06/11 12:13:02;;;;;;;6.30;5.80;;;35.00;24.50;;;;;;5001588;28;20527;-57
2023/06/11 12:15:28;;;;;;;6.47;5.87;;;35.00;24.80;;;;;;5003901;28;20301;-54
2023/06/11 12:17:54;;;;;;;5.63;5.23;;;35.20;25.30;;;;;;5010364;28;21022;-56
2023/06/11 12:20:22;;;;;;;6.23;5.73;;;35.60;24.40;;;;;;5008075;28;20285;-57
2023/06/11 12:22:49;;;;;;;6.90;6.23;;;35.40;24.40;;;;;;5006724;28;20299;-58
2023/06/11 12:25:14;;;;;;;6.53;5.90;;;34.30;25.20;;;;;;5005516;28;20933;-56
2023/06/11 12:27:41;;;;;;;5.90;5.40;;;34.30;25.90;;;;;;5009908;28;20507;-57
2023/06/11 12:30:07;;;;;;;5.90;5.40;;;35.00;25.60;;;;;;5002158;28;20200;-57
2023/06/11 12:32:33;;;;;;;8.03;5.90;;;35.50;24.80;;;;;;5008912;28;20445;-57
2023/06/11 12:34:59;;;;;;;6.47;5.97;;;36.00;24.20;;;;;;5008352;28;20441;-58
2023/06/11 12:37:25;;;;;;;6.00;5.40;;;36.30;23.50;;;;;;5017295;28;20961;-57
2023/06/11 12:39:51;;;;;;;6.37;5.87;;;36.20;23.20;;;;;;4996467;28;20284;-58
2023/06/11 12:42:20;;;;;;;6.57;6.10;;;36.10;23.10;;;;;;5010831;28;20305;-58
2023/06/11 12:44:46;;;;;;;5.67;5.17;;;36.20;23.30;;;;;;5008498;28;20814;-57
2023/06/11 12:47:13;;;;;;;5.90;5.47;;;36.00;23.70;;;;;;5013153;28;20815;-55